FDX1256 KEUG-KS12

Flight info

Callsign FDX1256
Flight time N/A
Altitude 2000
Route CVO
Aircraft C172/L-SFG/C

Departure

Time 2026-04-17 18:21
Airport Eugene Airport (KEUG)

Arrival

Time N/A
Airport KS12
Time Latitude Longitude Altitude Speed Heading
2026-04-17 18:19 44.11672 -123.20252 371 ft 0 kts 359°
2026-04-17 18:20 44.11675 -123.20252 371 ft 7 kts 355°
2026-04-17 18:20 44.11956 -123.20252 371 ft 63 kts
2026-04-17 18:20 44.12523 -123.20233 507 ft 76 kts
2026-04-17 18:21 44.13097 -123.20152 715 ft 77 kts 10°
2026-04-17 18:21 44.13687 -123.20016 880 ft 82 kts
2026-04-17 18:21 44.14327 -123.19871 958 ft 93 kts 14°
2026-04-17 18:21 44.15036 -123.19575 1006 ft 101 kts 20°
2026-04-17 18:22 44.15745 -123.19167 987 ft 105 kts 19°
2026-04-17 18:22 44.16512 -123.18938 1004 ft 105 kts 11°
2026-04-17 18:22 44.17269 -123.18746 935 ft 101 kts 13°
2026-04-17 18:22 44.18003 -123.18488 895 ft 98 kts 18°
2026-04-17 18:23 44.18673 -123.18173 876 ft 95 kts 20°
2026-04-17 18:23 44.19323 -123.17825 885 ft 91 kts 22°
2026-04-17 18:23 44.19935 -123.17422 919 ft 93 kts 28°
2026-04-17 18:23 44.20572 -123.17072 940 ft 94 kts 12°
2026-04-17 18:24 44.21231 -123.16837 991 ft 93 kts 16°
2026-04-17 18:24 44.21901 -123.16564 990 ft 97 kts 17°
2026-04-17 18:24 44.22580 -123.16251 978 ft 101 kts 22°
2026-04-17 18:24 44.23244 -123.15748 927 ft 105 kts 32°
2026-04-17 18:25 44.23881 -123.15189 948 ft 102 kts 34°
2026-04-17 18:25 44.24471 -123.14566 944 ft 103 kts 39°
2026-04-17 18:25 44.25038 -123.13879 924 ft 104 kts 41°
2026-04-17 18:25 44.25567 -123.13163 937 ft 102 kts 45°
2026-04-17 18:26 44.26069 -123.12407 916 ft 104 kts 47°
2026-04-17 18:26 44.26556 -123.11655 930 ft 103 kts 46°
2026-04-17 18:26 44.27131 -123.11027 933 ft 102 kts 34°
2026-04-17 18:26 44.27726 -123.10441 914 ft 104 kts 37°
2026-04-17 18:27 44.28376 -123.09920 915 ft 102 kts 18°
2026-04-17 18:27 44.29068 -123.09777 998 ft 96 kts
2026-04-17 18:27 44.29785 -123.09784 982 ft 101 kts 358°
2026-04-17 18:27 44.30534 -123.09792 953 ft 101 kts
2026-04-17 18:28 44.31267 -123.09774 924 ft 99 kts
2026-04-17 18:28 44.31899 -123.09383 953 ft 95 kts 28°
2026-04-17 18:28 44.32496 -123.08894 939 ft 97 kts 30°
2026-04-17 18:28 44.33073 -123.08363 963 ft 96 kts 33°
2026-04-17 18:29 44.33673 -123.07806 921 ft 100 kts 32°
2026-04-17 18:29 44.34281 -123.07245 898 ft 100 kts 33°
2026-04-17 18:29 44.34864 -123.06639 890 ft 100 kts 37°
2026-04-17 18:29 44.35485 -123.06182 928 ft 95 kts 17°
2026-04-17 18:30 44.36156 -123.06001 944 ft 95 kts
2026-04-17 18:30 44.36866 -123.05977 928 ft 97 kts 359°
2026-04-17 18:30 44.37581 -123.05979 924 ft 98 kts
2026-04-17 18:30 44.38290 -123.06003 951 ft 95 kts 358°
2026-04-17 18:31 44.39006 -123.06033 951 ft 96 kts 358°
2026-04-17 18:31 44.39712 -123.06048 948 ft 97 kts 359°
2026-04-17 18:31 44.40445 -123.06057 945 ft 98 kts
2026-04-17 18:31 44.41179 -123.06028 950 ft 99 kts
2026-04-17 18:32 44.41912 -123.06026 945 ft 100 kts 359°
2026-04-17 18:32 44.42653 -123.06040 947 ft 100 kts 358°
2026-04-17 18:32 44.43397 -123.06055 967 ft 100 kts
2026-04-17 18:32 44.44150 -123.06068 926 ft 104 kts 359°
2026-04-17 18:33 44.44931 -123.06078 908 ft 104 kts 359°
2026-04-17 18:33 44.45717 -123.06064 896 ft 103 kts
2026-04-17 18:33 44.46492 -123.06046 879 ft 104 kts
2026-04-17 18:33 44.47273 -123.06050 881 ft 103 kts
2026-04-17 18:34 44.48027 -123.06031 900 ft 101 kts
2026-04-17 18:34 44.48776 -123.06047 925 ft 100 kts
2026-04-17 18:34 44.49532 -123.06061 947 ft 100 kts 359°
2026-04-17 18:34 44.50289 -123.06054 945 ft 102 kts
2026-04-17 18:35 44.51068 -123.06053 926 ft 104 kts 359°
2026-04-17 18:35 44.51848 -123.06049 908 ft 105 kts
2026-04-17 18:35 44.52637 -123.06042 912 ft 103 kts
2026-04-17 18:35 44.53425 -123.06025 918 ft 102 kts 359°
2026-04-17 18:36 44.54182 -123.06042 913 ft 103 kts 359°
2026-04-17 18:36 44.54904 -123.06065 908 ft 102 kts 359°
2026-04-17 18:36 44.55654 -123.06072 934 ft 99 kts
2026-04-17 18:36 44.56407 -123.06099 964 ft 98 kts 359°
2026-04-17 18:37 44.57167 -123.06118 952 ft 100 kts 360°
2026-04-17 18:37 44.57947 -123.06101 938 ft 101 kts
2026-04-17 18:37 44.58710 -123.06054 955 ft 99 kts
2026-04-17 18:37 44.59462 -123.05932 936 ft 100 kts
2026-04-17 18:38 44.60209 -123.05840 936 ft 91 kts
2026-04-17 18:38 44.60886 -123.05929 732 ft 83 kts
2026-04-17 18:38 44.61442 -123.05948 632 ft 66 kts 359°
2026-04-17 18:38 44.61959 -123.05944 498 ft 67 kts
2026-04-17 18:39 44.62469 -123.05947 409 ft 64 kts 359°
2026-04-17 18:39 44.62966 -123.05951 321 ft 65 kts 360°
2026-04-17 18:39 44.63467 -123.05944 232 ft 61 kts
2026-04-17 18:39 44.63752 -123.05942 226 ft 11 kts
2026-04-17 18:40 44.63806 -123.05974 227 ft 5 kts 285°
2026-04-17 18:40 44.63821 -123.06029 226 ft 6 kts 321°
2026-04-17 18:40 44.63830 -123.06059 226 ft 0 kts 258°